Time,TemperatureF,DewpointF,PressureIn,WindDirection,WindDirectionDegrees,WindSpeedMPH,WindSpeedGustMPH,Humidity,HourlyPrecipIn,Conditions,Clouds,dailyrainin,SoftwareType,DateUTC
2013-01-21 00:08:00,42.6,34.6,29.92,SE,135,0.0,-999.0,73,-99.99,,,0.00,Acu-Link.com,2013-01-21 05:08:00,
2013-01-21 00:23:00,41.5,34.5,29.91,NNW,337,1.1,-999.0,76,-99.99,,,0.00,Acu-Link.com,2013-01-21 05:23:00,
2013-01-21 00:39:00,41.5,34.8,29.91,NNW,337,1.1,-999.0,77,-99.99,,,0.00,Acu-Link.com,2013-01-21 05:39:00,
2013-01-21 00:54:00,41.9,35.2,29.91,WNW,292,1.7,-999.0,77,-99.99,,,0.00,Acu-Link.com,2013-01-21 05:54:00,
2013-01-21 01:09:00,40.8,34.5,29.91,WNW,292,0.0,-999.0,78,-99.99,,,0.00,Acu-Link.com,2013-01-21 06:09:00,
2013-01-21 01:24:00,39.6,34.3,29.91,SSW,202,0.0,-999.0,81,-99.99,,,0.00,Acu-Link.com,2013-01-21 06:24:00,
2013-01-21 01:39:00,39.2,36.2,29.91,South,180,0.0,-999.0,89,-99.99,,,0.00,Acu-Link.com,2013-01-21 06:39:00,
2013-01-21 01:54:00,39.2,36.5,29.91,SSW,202,0.0,-999.0,90,-99.99,,,0.00,Acu-Link.com,2013-01-21 06:54:00,
2013-01-21 02:09:00,38.3,36.7,29.91,NNW,337,0.0,-999.0,94,-99.99,,,0.00,Acu-Link.com,2013-01-21 07:09:00,
2013-01-21 02:24:00,37.4,36.9,29.91,NNW,337,0.0,-999.0,98,-99.99,,,0.00,Acu-Link.com,2013-01-21 07:24:00,
2013-01-21 02:39:00,36.1,35.6,29.91,NNE,22,0.0,-999.0,98,-99.99,,,0.00,Acu-Link.com,2013-01-21 07:39:00,
2013-01-21 02:55:00,35.4,34.9,29.91,NW,315,0.0,-999.0,98,-99.99,,,0.00,Acu-Link.com,2013-01-21 07:55:00,
2013-01-21 03:10:00,34.9,34.4,29.91,NW,315,0.0,-999.0,98,-99.99,,,0.00,Acu-Link.com,2013-01-21 08:10:00,
2013-01-21 03:25:00,34.5,34.0,29.90,NW,315,0.0,-999.0,98,-99.99,,,0.00,Acu-Link.com,2013-01-21 08:25:00,
2013-01-21 03:40:00,34.9,34.4,29.91,NW,315,0.0,-999.0,98,-99.99,,,0.00,Acu-Link.com,2013-01-21 08:40:00,
2013-01-21 03:55:00,35.2,34.7,29.91,NW,315,0.0,-999.0,98,-99.99,,,0.00,Acu-Link.com,2013-01-21 08:55:00,
2013-01-21 04:16:00,35.2,34.7,29.90,NW,315,0.0,-999.0,98,-99.99,,,0.00,Acu-Link.com,2013-01-21 09:16:00,
2013-01-21 05:02:00,35.6,35.1,29.91,NW,315,1.1,-999.0,98,-99.99,,,0.00,Acu-Link.com,2013-01-21 10:02:00,
2013-01-21 05:32:00,36.7,36.2,29.90,South,180,1.1,-999.0,98,-99.99,,,0.00,Acu-Link.com,2013-01-21 10:32:00,
2013-01-21 05:47:00,35.8,35.3,29.90,WSW,247,0.0,-999.0,98,-99.99,,,0.00,Acu-Link.com,2013-01-21 10:47:00,
2013-01-21 06:02:00,36.1,35.6,29.90,ENE,67,0.0,-999.0,98,-99.99,,,0.00,Acu-Link.com,2013-01-21 11:02:00,
2013-01-21 06:17:00,36.5,36.0,29.89,WNW,292,0.0,-999.0,98,-99.99,,,0.00,Acu-Link.com,2013-01-21 11:17:00,
2013-01-21 06:32:00,36.5,36.0,29.89,NNW,337,0.0,-999.0,98,-99.99,,,0.00,Acu-Link.com,2013-01-21 11:32:00,
2013-01-21 06:47:00,36.0,35.5,29.89,NW,315,1.1,-999.0,98,-99.99,,,0.00,Acu-Link.com,2013-01-21 11:47:00,
2013-01-21 07:02:00,35.1,34.6,29.89,NW,315,0.0,-999.0,98,-99.99,,,0.00,Acu-Link.com,2013-01-21 12:02:00,
2013-01-21 07:18:00,34.9,34.4,29.89,ENE,67,0.0,-999.0,98,-99.99,,,0.00,Acu-Link.com,2013-01-21 12:18:00,
2013-01-21 07:33:00,34.2,33.7,29.89,North,0,0.0,-999.0,98,-99.99,,,0.00,Acu-Link.com,2013-01-21 12:33:00,
2013-01-21 07:48:00,34.0,33.5,29.89,NW,315,0.0,-999.0,98,-99.99,,,0.00,Acu-Link.com,2013-01-21 12:48:00,
2013-01-21 08:03:00,34.5,34.0,29.90,ENE,67,1.1,-999.0,98,-99.99,,,0.00,Acu-Link.com,2013-01-21 13:03:00,
2013-01-21 08:18:00,35.2,34.7,29.90,NE,45,0.0,-999.0,98,-99.99,,,0.00,Acu-Link.com,2013-01-21 13:18:00,
2013-01-21 08:33:00,36.5,36.0,29.90,ESE,112,0.0,-999.0,98,-99.99,,,0.00,Acu-Link.com,2013-01-21 13:33:00,
2013-01-21 08:48:00,40.3,37.0,29.90,East,90,1.1,-999.0,88,-99.99,,,0.00,Acu-Link.com,2013-01-21 13:48:00,
2013-01-21 09:03:00,43.2,36.2,29.91,NE,45,2.2,-999.0,76,-99.99,,,0.00,Acu-Link.com,2013-01-21 14:03:00,
2013-01-21 09:18:00,44.6,36.1,29.91,ENE,67,2.7,-999.0,72,-99.99,,,0.00,Acu-Link.com,2013-01-21 14:18:00,
2013-01-21 09:34:00,48.2,36.6,29.91,SW,225,1.7,-999.0,64,-99.99,,,0.00,Acu-Link.com,2013-01-21 14:34:00,
2013-01-21 09:49:00,50.0,36.2,29.91,South,180,3.7,-999.0,59,-99.99,,,0.00,Acu-Link.com,2013-01-21 14:49:00,
2013-01-21 10:04:00,50.2,33.7,29.91,East,90,2.2,-999.0,53,-99.99,,,0.00,Acu-Link.com,2013-01-21 15:04:00,
2013-01-21 10:19:00,49.8,32.4,29.90,SSE,157,2.7,-999.0,51,-99.99,,,0.00,Acu-Link.com,2013-01-21 15:19:00,
2013-01-21 10:34:00,51.3,34.8,29.89,West,270,2.2,-999.0,53,-99.99,,,0.00,Acu-Link.com,2013-01-21 15:34:00,
2013-01-21 10:49:00,51.4,34.4,29.89,SSE,157,3.2,-999.0,52,-99.99,,,0.00,Acu-Link.com,2013-01-21 15:49:00,
2013-01-21 11:04:00,52.3,34.2,29.89,South,180,0.0,-999.0,50,-99.99,,,0.00,Acu-Link.com,2013-01-21 16:04:00,
2013-01-21 11:19:00,53.1,35.0,29.88,SSE,157,2.2,-999.0,50,-99.99,,,0.00,Acu-Link.com,2013-01-21 16:19:00,
2013-01-21 11:34:00,54.0,35.3,29.86,South,180,2.7,-999.0,49,-99.99,,,0.00,Acu-Link.com,2013-01-21 16:34:00,
2013-01-21 11:50:00,54.5,34.1,29.84,WSW,247,1.7,-999.0,46,-99.99,,,0.00,Acu-Link.com,2013-01-21 16:50:00,
2013-01-21 12:05:00,55.0,34.6,29.84,South,180,1.7,-999.0,46,-99.99,,,0.00,Acu-Link.com,2013-01-21 17:05:00,
2013-01-21 12:20:00,56.7,35.6,29.82,SSE,157,3.2,-999.0,45,-99.99,,,0.00,Acu-Link.com,2013-01-21 17:20:00,
2013-01-21 12:35:00,56.3,35.2,29.82,NNW,337,2.7,-999.0,45,-99.99,,,0.00,Acu-Link.com,2013-01-21 17:35:00,
2013-01-21 12:50:00,57.0,34.1,29.80,SSE,157,3.2,-999.0,42,-99.99,,,0.00,Acu-Link.com,2013-01-21 17:50:00,
2013-01-21 13:05:00,57.6,34.7,29.81,North,0,3.2,-999.0,42,-99.99,,,0.00,Acu-Link.com,2013-01-21 18:05:00,
2013-01-21 13:20:00,57.2,34.9,29.79,West,270,1.7,-999.0,43,-99.99,,,0.00,Acu-Link.com,2013-01-21 18:20:00,
2013-01-21 13:35:00,57.6,35.3,29.77,SSE,157,4.2,-999.0,43,-99.99,,,0.00,Acu-Link.com,2013-01-21 18:35:00,
2013-01-21 13:50:00,57.9,36.1,29.76,West,270,2.2,-999.0,44,-99.99,,,0.00,Acu-Link.com,2013-01-21 18:50:00,
2013-01-21 14:06:00,58.8,36.9,29.76,SSW,202,4.2,-999.0,44,-99.99,,,0.00,Acu-Link.com,2013-01-21 19:06:00,
2013-01-21 14:21:00,59.7,36.6,29.75,SSE,157,2.2,-999.0,42,-99.99,,,0.00,Acu-Link.com,2013-01-21 19:21:00,
2013-01-21 14:36:00,58.8,36.9,29.75,East,90,2.2,-999.0,44,-99.99,,,0.00,Acu-Link.com,2013-01-21 19:36:00,
2013-01-21 14:51:00,58.6,36.8,29.74,WSW,247,4.2,-999.0,44,-99.99,,,0.00,Acu-Link.com,2013-01-21 19:51:00,
2013-01-21 15:06:00,60.1,37.5,29.74,SSE,157,4.7,-999.0,43,-99.99,,,0.00,Acu-Link.com,2013-01-21 20:06:00,
2013-01-21 15:21:00,59.9,37.9,29.72,West,270,1.7,-999.0,44,-99.99,,,0.00,Acu-Link.com,2013-01-21 20:21:00,
2013-01-21 15:36:00,59.9,37.9,29.73,North,0,2.2,-999.0,44,-99.99,,,0.00,Acu-Link.com,2013-01-21 20:36:00,
2013-01-21 15:51:00,59.2,37.9,29.72,NE,45,1.7,-999.0,45,-99.99,,,0.00,Acu-Link.com,2013-01-21 20:51:00,
2013-01-21 16:06:00,58.5,37.8,29.72,SSW,202,2.2,-999.0,46,-99.99,,,0.00,Acu-Link.com,2013-01-21 21:06:00,
2013-01-21 16:22:00,58.1,38.0,29.71,NE,45,1.7,-999.0,47,-99.99,,,0.00,Acu-Link.com,2013-01-21 21:22:00,
2013-01-21 16:37:00,57.6,38.1,29.71,NE,45,2.2,-999.0,48,-99.99,,,0.00,Acu-Link.com,2013-01-21 21:37:00,
2013-01-21 16:52:00,57.0,38.0,29.70,NNW,337,3.2,-999.0,49,-99.99,,,0.00,Acu-Link.com,2013-01-21 21:52:00,
2013-01-21 17:07:00,56.3,36.9,29.70,West,270,2.2,-999.0,48,-99.99,,,0.00,Acu-Link.com,2013-01-21 22:07:00,
2013-01-21 17:22:00,55.8,36.4,29.71,North,0,1.7,-999.0,48,-99.99,,,0.00,Acu-Link.com,2013-01-21 22:22:00,
2013-01-21 17:37:00,54.1,35.9,29.70,WNW,292,2.2,-999.0,50,-99.99,,,0.00,Acu-Link.com,2013-01-21 22:37:00,
2013-01-21 17:52:00,53.4,36.2,29.70,NNE,22,2.2,-999.0,52,-99.99,,,0.00,Acu-Link.com,2013-01-21 22:52:00,
2013-01-21 18:07:00,52.5,35.9,29.71,ESE,112,1.7,-999.0,53,-99.99,,,0.00,Acu-Link.com,2013-01-21 23:07:00,
2013-01-21 18:22:00,52.0,36.3,29.72,WNW,292,4.2,-999.0,55,-99.99,,,0.00,Acu-Link.com,2013-01-21 23:22:00,
2013-01-21 18:37:00,51.4,36.2,29.72,SSW,202,1.7,-999.0,56,-99.99,,,0.00,Acu-Link.com,2013-01-21 23:37:00,
2013-01-21 18:53:00,50.9,36.2,29.71,SSE,157,2.7,-999.0,57,-99.99,,,0.00,Acu-Link.com,2013-01-21 23:53:00,
2013-01-21 19:08:00,50.7,36.5,29.71,ENE,67,1.7,-999.0,58,-99.99,,,0.00,Acu-Link.com,2013-01-22 00:08:00,
2013-01-21 19:23:00,50.2,36.4,29.72,South,180,2.2,-999.0,59,-99.99,,,0.00,Acu-Link.com,2013-01-22 00:23:00,
2013-01-21 19:38:00,50.2,36.4,29.72,West,270,2.2,-999.0,59,-99.99,,,0.00,Acu-Link.com,2013-01-22 00:38:00,
2013-01-21 19:53:00,50.4,37.5,29.73,WNW,292,1.7,-999.0,61,-99.99,,,0.00,Acu-Link.com,2013-01-22 00:53:00,
2013-01-21 20:08:00,49.1,37.1,29.74,NNE,22,1.1,-999.0,63,-99.99,,,0.00,Acu-Link.com,2013-01-22 01:08:00,
2013-01-21 20:23:00,48.7,35.9,29.74,NNW,337,1.7,-999.0,61,-99.99,,,0.00,Acu-Link.com,2013-01-22 01:23:00,
2013-01-21 20:38:00,47.8,34.2,29.75,WNW,292,2.7,-999.0,59,-99.99,,,0.00,Acu-Link.com,2013-01-22 01:38:00,
2013-01-21 20:53:00,47.5,33.0,29.76,NW,315,2.2,-999.0,57,-99.99,,,0.00,Acu-Link.com,2013-01-22 01:53:00,
2013-01-21 21:09:00,47.1,31.3,29.76,NNE,22,2.7,-999.0,54,-99.99,,,0.00,Acu-Link.com,2013-01-22 02:09:00,
2013-01-21 21:24:00,46.6,29.5,29.77,NNW,337,1.7,-999.0,51,-99.99,,,0.00,Acu-Link.com,2013-01-22 02:24:00,
2013-01-21 21:39:00,45.5,28.9,29.76,South,180,1.1,-999.0,52,-99.99,,,0.00,Acu-Link.com,2013-01-22 02:39:00,
2013-01-21 21:54:00,45.0,28.0,29.77,WSW,247,1.1,-999.0,51,-99.99,,,0.00,Acu-Link.com,2013-01-22 02:54:00,
2013-01-21 22:09:00,44.4,26.9,29.78,SSE,157,1.7,-999.0,50,-99.99,,,0.00,Acu-Link.com,2013-01-22 03:09:00,
2013-01-21 22:24:00,43.9,26.0,29.78,SSE,157,1.1,-999.0,49,-99.99,,,0.00,Acu-Link.com,2013-01-22 03:24:00,
2013-01-21 22:39:00,43.5,25.1,29.78,NNW,337,1.7,-999.0,48,-99.99,,,0.00,Acu-Link.com,2013-01-22 03:39:00,
2013-01-21 22:54:00,43.2,24.3,29.79,NW,315,1.7,-999.0,47,-99.99,,,0.00,Acu-Link.com,2013-01-22 03:54:00,
2013-01-21 23:09:00,43.0,24.7,29.78,NNW,337,1.7,-999.0,48,-99.99,,,0.00,Acu-Link.com,2013-01-22 04:09:00,
2013-01-21 23:25:00,42.3,23.5,29.79,SW,225,2.7,-999.0,47,-99.99,,,0.00,Acu-Link.com,2013-01-22 04:25:00,
2013-01-21 23:40:00,41.5,23.8,29.79,NNE,22,1.1,-999.0,49,-99.99,,,0.00,Acu-Link.com,2013-01-22 04:40:00,
2013-01-21 23:55:00,40.8,23.6,29.79,SE,135,1.7,-999.0,50,-99.99,,,0.00,Acu-Link.com,2013-01-22 04:55:00,